Latest Weather Observations for Lucinda

IDQ60801

Issued at 7:32 pm EST Monday 23 October 2017 (issued every 30 minutes, with the page automatically refreshed every 10 minutes)

About weather observations | Map of weather stations | Latest weather observations for QLD | Other Formats
Station Details ID: 032141 Name: LUCINDA POINT Lat: -18.52 Lon: 146.39 Height: 10.0 m
Data from the previous 72 hours. | See also: Recent months at Lucinda
Date/Time
EST
Temp
°C
App
Temp
°C
Dew
Point
°C
Rel
Hum
%
Delta-T
°C
Wind Press
QNH
hPa
Press
MSL
hPa
Rain since
9am
mm
Dir  Spd
km/h
Gust
km/h
Spd
kts
Gust
kts
23/07:30pm 25.6 26.2 21.3 77 2.8 N 20 24 11 13 1012.8 1012.7 0.0
23/07:00pm 25.5 25.3 20.5 74 3.3 N 22 26 12 14 1012.6 1012.5 0.0
23/06:30pm 25.6 25.7 21.1 76 3.0 NNE 22 28 12 15 1012.1 1012.0 0.0
23/06:00pm 25.8 26.1 20.8 74 3.3 NNE 20 26 11 14 1011.7 1011.6 0.0
23/05:30pm 25.9 25.1 20.9 74 3.3 NE 26 30 14 16 1011.2 1011.1 0.0
23/05:00pm 26.1 25.2 20.7 72 3.6 NNE 26 30 14 16 1010.8 1010.7 0.0
23/04:30pm 26.2 25.2 20.5 71 3.7 NNE 26 32 14 17 1010.5 1010.4 0.0
23/04:00pm 26.0 25.4 20.6 72 3.5 NNE 24 30 13 16 1010.5 1010.4 0.0
23/03:30pm 25.7 25.8 20.3 72 3.5 NE 20 24 11 13 1010.5 1010.4 0.0
23/03:00pm 25.9 25.7 20.5 72 3.5 NE 22 26 12 14 1010.6 1010.5 0.0
23/02:30pm 26.4 27.1 20.5 70 3.9 ENE 17 22 9 12 1011.0 1010.9 0.0
23/02:00pm 26.4 27.2 20.7 71 3.8 E 17 20 9 11 1011.2 1011.1 0.0
23/01:30pm 26.3 27.7 21.1 73 3.4 ENE 15 20 8 11 1011.4 1011.3 0.0
23/01:00pm 25.9 26.2 20.5 72 3.5 E 19 24 10 13 1011.7 1011.6 0.0
23/12:30pm 26.0 27.5 21.2 75 3.2 ENE 15 20 8 11 1012.5 1012.4 0.0
23/12:00pm 25.9 27.6 20.9 74 3.3 ENE 13 19 7 10 1012.9 1012.8 0.0
23/11:30am 25.9 27.7 21.1 75 3.2 ENE 13 19 7 10 1013.3 1013.3 0.0
23/11:00am 26.1 28.3 21.1 74 3.3 E 11 15 6 8 1013.5 1013.5 0.0
23/10:30am 26.8 29.3 21.1 71 3.8 SE 9 13 5 7 1013.6 1013.6 0.0
23/10:00am 26.4 28.8 20.9 72 3.6 ESE 9 13 5 7 1013.8 1013.8 0.0
23/09:30am 26.3 29.5 21.3 74 3.3 ESE 6 9 3 5 1013.8 1013.8 0.0
23/09:00am 24.8 27.7 21.1 80 2.4 SSW 7 9 4 5 1013.8 1013.8 0.2
23/08:30am 24.0 26.8 20.9 83 2.0 SW 7 11 4 6 1013.5 1013.5 0.2
23/08:00am 23.5 25.4 21.4 88 1.4 SW 13 15 7 8 1013.1 1013.0 0.2
23/07:30am 23.0 24.3 20.9 88 1.4 W 15 17 8 9 1012.7 1012.6 0.2
23/07:00am 22.9 24.3 21.0 89 1.2 WSW 15 17 8 9 1012.3 1012.2 0.2
23/06:30am 22.9 24.7 21.2 90 1.1 WSW 13 15 7 8 1012.1 1012.0 0.2
23/06:00am 22.4 23.8 21.0 92 0.9 WSW 15 17 8 9 1011.8 1011.7 0.2
23/05:30am 22.6 24.4 21.1 91 1.0 WSW 13 15 7 8 1011.7 1011.6 0.2
23/05:00am 22.4 22.9 20.9 91 1.0 WSW 19 22 10 12 1011.7 1011.6 0.2
23/04:30am 22.2 23.5 20.8 92 0.9 W 15 19 8 10 1011.5 1011.4 0.2
23/04:00am 22.3 23.2 20.8 91 1.0 WSW 17 20 9 11 1011.2 1011.1 0.2
23/03:30am 22.3 22.6 20.8 91 1.0 WSW 20 20 11 11 1010.9 1010.8 0.2
23/03:00am 22.5 23.4 20.8 90 1.1 SW 17 17 9 9 1011.0 1010.9 0.2
23/02:30am 22.8 24.6 21.1 90 1.1 WSW 13 15 7 8 1011.1 1011.0 0.2
23/02:00am 23.1 25.4 21.4 90 1.1 W 11 13 6 7 1011.1 1011.0 0.2
23/01:30am 23.4 25.9 21.7 90 1.1 WSW 11 13 6 7 1011.4 1011.3 0.2
23/01:00am 24.1 27.5 21.0 83 2.0 W 4 13 2 7 1011.5 1011.4 0.2
23/12:30am 23.8 26.1 20.7 83 2.0 NW 9 13 5 7 1011.6 1011.5 0.2
23/12:00am 24.3 25.3 21.0 82 2.2 NNW 17 20 9 11 1011.5 1011.4 0.2
 
Date/Time
EST
Temp
°C
App
Temp
°C
Dew
Point
°C
Rel
Hum
%
Delta-T
°C
Wind Press
QNH
hPa
Press
MSL
hPa
Rain since
9am
mm
Dir  Spd
km/h
Gust
km/h
Spd
kts
Gust
kts
22/11:30pm 24.3 25.8 21.2 83 2.0 NNW 15 20 8 11 1011.9 1011.8 0.2
22/11:00pm 24.4 25.4 21.1 82 2.2 NNW 17 20 9 11 1011.9 1011.8 0.2
22/10:30pm 24.5 25.1 21.0 81 2.3 NNW 19 24 10 13 1011.9 1011.8 0.2
22/10:00pm 24.5 25.4 20.8 80 2.4 NNW 17 20 9 11 1012.0 1011.9 0.2
22/09:30pm 24.5 24.8 20.8 80 2.4 NNW 20 24 11 13 1011.7 1011.6 0.2
22/09:00pm 24.5 24.5 21.0 81 2.3 NNW 22 26 12 14 1011.6 1011.5 0.2
22/08:30pm 24.6 24.8 21.3 82 2.2 NNW 22 26 12 14 1011.3 1011.2 0.2
22/08:00pm 24.4 24.7 20.5 79 2.5 N 19 24 10 13 1010.8 1010.7 0.2
22/07:30pm 24.4 24.6 20.5 79 2.5 NNW 20 26 11 14 1010.7 1010.6 0.2
22/07:00pm 24.6 25.5 20.9 80 2.4 N 17 22 9 12 1010.4 1010.3 0.2
22/06:30pm 24.4 25.2 20.7 80 2.4 N 17 22 9 12 1010.0 1009.9 0.2
22/06:00pm 24.4 24.7 20.3 78 2.7 NNE 19 20 10 11 1009.5 1009.4 0.2
22/05:30pm 24.5 25.5 20.2 77 2.8 NNE 15 20 8 11 1009.4 1009.3 0.2
22/05:00pm 24.6 25.4 19.9 75 3.0 NNE 15 19 8 10 1009.4 1009.3 0.2
22/04:30pm 24.3 24.8 20.0 77 2.8 NE 17 20 9 11 1009.2 1009.1 0.2
22/04:00pm 24.7 26.3 20.8 79 2.6 NE 13 17 7 9 1009.5 1009.4 0.2
22/03:30pm 24.4 26.2 20.3 78 2.7 NE 11 15 6 8 1009.7 1009.6 0.2
22/03:00pm 24.1 25.9 20.4 80 2.4 NNE 11 15 6 8 1009.8 1009.7 0.2
22/02:30pm 24.3 25.8 20.6 80 2.4 NE 13 17 7 9 1009.8 1009.7 0.2
22/02:00pm 24.2 26.3 20.9 82 2.2 NE 11 15 6 8 1010.0 1009.9 0.2
22/01:30pm 24.0 26.1 20.1 79 2.5 ENE 9 13 5 7 1010.4 1010.3 0.2
22/01:00pm 23.7 25.7 20.8 84 1.9 NE 11 15 6 8 1010.7 1010.6 0.2
22/12:30pm 23.6 26.1 21.1 86 1.6 NE 9 13 5 7 1010.9 1010.8 0.2
22/12:00pm 23.2 24.6 21.1 88 1.4 NE 15 17 8 9 1011.6 1011.5 0.2
22/11:30am 24.9 27.9 20.8 78 2.7 SE 6 13 3 7 1012.0 1011.9 0.2
22/11:00am 24.0 26.3 20.7 82 2.2 SSW 9 13 5 7 1012.4 1012.3 0.0
22/10:30am 23.7 25.2 20.6 83 2.0 S 13 15 7 8 1012.7 1012.6 0.0
22/10:00am 23.4 24.7 20.9 86 1.6 SSW 15 19 8 10 1012.8 1012.7 0.0
22/09:30am 22.7 23.5 20.6 88 1.4 SW 17 20 9 11 1012.9 1012.8 0.0
22/09:00am 22.5 23.9 21.1 92 0.9 SW 15 19 8 10 1012.8 1012.7 9.8
22/08:30am 22.4 24.7 21.4 94 0.7 WSW 11 13 6 7 1012.6 1012.5 9.8
22/08:00am 22.1 25.2 21.4 96 0.5 WSW 7 11 4 6 1012.5 1012.4 9.8
22/07:30am 22.0 25.6 21.3 96 0.5 S 4 7 2 4 1012.3 1012.2 9.8
22/07:00am 21.8 24.7 21.1 96 0.5 SSW 7 9 4 5 1012.0 1011.9 9.4
22/06:30am 22.0 24.9 21.0 94 0.7 S 7 13 4 7 1011.5 1011.4 7.0
22/06:00am 21.8 24.3 21.0 95 0.5 S 9 15 5 8 1011.3 1011.2 7.0
22/05:30am 21.8 24.5 21.3 97 0.3 ESE 9 13 5 7 1011.1 1011.0 7.0
22/05:00am 21.5 24.0 21.0 97 0.3 ESE 9 13 5 7 1011.0 1010.9 6.8
22/04:30am 21.5 23.1 20.8 96 0.5 SE 13 17 7 9 1010.9 1010.8 6.0
22/04:00am 21.5 22.7 20.7 95 0.5 E 15 22 8 12 1010.7 1010.6 4.0
22/03:30am 22.0 24.0 20.8 93 0.8 ESE 11 22 6 12 1010.4 1010.3 1.8
22/03:00am 22.0 22.9 20.8 93 0.8 ESE 17 26 9 14 1010.4 1010.3 1.6
22/02:30am 21.8 22.2 21.0 95 0.5 ESE 20 32 11 17 1010.6 1010.5 1.6
22/02:00am 22.4 23.7 21.6 95 0.5 SE 17 30 9 16 1010.9 1010.8 0.8
22/01:30am 21.9 22.8 20.9 94 0.7 SE 17 26 9 14 1011.1 1011.0 0.8
22/01:00am 22.5 23.1 21.3 93 0.8 SE 20 33 11 18 1011.3 1011.2 0.6
22/12:30am 23.1 23.8 21.5 91 1.1 S 20 32 11 17 1011.4 1011.3 0.4
22/12:00am 23.2 23.6 20.7 86 1.6 S 19 26 10 14 1011.6 1011.5 0.4
 
Date/Time
EST
Temp
°C
App
Temp
°C
Dew
Point
°C
Rel
Hum
%
Delta-T
°C
Wind Press
QNH
hPa
Press
MSL
hPa
Rain since
9am
mm
Dir  Spd
km/h
Gust
km/h
Spd
kts
Gust
kts
21/11:30pm 24.0 25.6 21.5 86 1.7 SSE 15 28 8 15 1011.9 1011.8 0.4
21/11:00pm 24.6 26.7 20.1 76 2.9 SE 9 15 5 8 1012.1 1012.0 0.4
21/10:30pm 24.5 28.2 21.4 83 2.0 NNE 4 9 2 5 1012.4 1012.3 0.4
21/10:00pm 24.7 26.4 21.0 80 2.4 NNE 13 17 7 9 1012.5 1012.4 0.4
21/09:30pm 24.9 26.9 20.8 78 2.7 NE 11 15 6 8 1012.4 1012.3 0.0
21/09:00pm 24.8 26.6 20.3 76 2.9 ENE 11 15 6 8 1012.2 1012.1 0.0
21/08:30pm 25.0 26.8 21.1 79 2.6 E 13 19 7 10 1012.2 1012.1 0.0
21/08:00pm 25.0 27.1 20.9 78 2.7 ENE 11 15 6 8 1012.0 1011.9 0.0
21/07:30pm 24.9 27.2 20.6 77 2.8 E 9 13 5 7 1011.9 1011.8 0.0
21/07:00pm 24.9 27.0 20.2 75 3.1 ENE 9 13 5 7 1011.6 1011.5 0.0
21/06:30pm 24.9 27.4 21.0 79 2.6 NNE 9 13 5 7 1011.4 1011.3 0.0
21/06:00pm 24.6 26.6 20.7 79 2.6 NE 11 13 6 7 1011.1 1011.0 0.0
21/05:30pm 24.9 27.2 20.6 77 2.8 NE 9 11 5 6 1010.8 1010.7 0.0
21/05:00pm 25.2 27.1 20.5 75 3.1 NE 11 15 6 8 1010.6 1010.5 0.0
21/04:30pm 25.1 26.4 20.1 74 3.2 NNE 13 17 7 9 1010.4 1010.3 0.0
21/04:00pm 25.5 27.0 20.5 74 3.3 NE 13 17 7 9 1010.5 1010.4 0.0
21/03:30pm 25.3 25.7 19.9 72 3.5 NE 17 20 9 11 1010.5 1010.4 0.0
21/03:00pm 25.4 25.9 20.0 72 3.5 NE 17 20 9 11 1010.7 1010.6 0.0
21/02:30pm 25.6 26.0 19.9 70 3.7 ENE 17 20 9 11 1010.9 1010.8 0.0
21/02:00pm 26.0 27.3 20.1 70 3.8 E 13 17 7 9 1011.3 1011.2 0.0
21/01:30pm 25.7 27.6 20.5 73 3.4 ENE 11 15 6 8 1011.7 1011.6 0.0
21/01:00pm 26.3 28.2 19.7 67 4.3 ENE 9 13 5 7 1012.1 1012.0 0.0
21/12:30pm 26.7 28.8 20.1 67 4.3 E 9 13 5 7 1012.7 1012.6 0.0
21/12:00pm 27.0 28.8 20.3 66 4.4 ESE 11 15 6 8 1013.3 1013.3 0.0
21/11:30am 26.4 28.2 19.5 66 4.5 E 9 13 5 7 1013.6 1013.6 0.0
21/11:00am 27.6 29.6 19.9 63 5.0 SE 9 11 5 6 1013.9 1013.9 0.0
21/10:30am 27.8 30.0 20.4 64 4.9 SE 9 15 5 8 1014.3 1014.3 0.0
21/10:00am 27.6 29.5 19.7 62 5.1 ESE 9 15 5 8 1014.5 1014.5 0.0
21/09:30am 27.2 29.7 19.8 64 4.8 ENE 6 11 3 6 1014.6 1014.6 0.0
21/09:00am 27.4 29.6 19.5 62 5.1 ESE 7 11 4 6 1014.6 1014.6 0.0
21/08:30am 27.0 29.0 19.9 65 4.6 ESE 9 15 5 8 1014.6 1014.6 0.0
21/08:00am 26.7 28.4 20.1 67 4.3 ESE 11 17 6 9 1014.5 1014.5 0.0
21/07:30am 26.5 28.2 20.1 68 4.2 ESE 11 19 6 10 1014.2 1014.2 0.0
21/07:00am 24.9 27.0 20.2 75 3.1 ESE 9 15 5 8 1013.9 1013.9 0.0
21/06:30am 24.9 26.7 20.4 76 2.9 ESE 11 19 6 10 1013.6 1013.6 0.0
21/06:00am 24.8 26.6 20.3 76 2.9 SE 11 17 6 9 1013.3 1013.3 0.0
21/05:30am 24.7 25.9 20.0 75 3.0 SE 13 20 7 11 1013.1 1013.0 0.0
21/05:00am 24.7 26.9 20.4 77 2.8 SE 9 15 5 8 1013.1 1013.0 0.0
21/04:30am 24.6 26.8 20.5 78 2.7 SE 9 17 5 9 1012.8 1012.7 0.0
21/04:00am 24.7 26.9 20.4 77 2.8 ESE 9 15 5 8 1012.6 1012.5 0.0
21/03:30am 24.7 26.6 20.6 78 2.7 SE 11 19 6 10 1012.8 1012.7 0.0
21/03:00am 24.8 26.7 20.5 77 2.8 ESE 11 17 6 9 1013.0 1012.9 0.0
21/02:30am 24.8 26.2 20.3 76 2.9 ESE 13 20 7 11 1013.3 1013.3 0.0
21/02:00am 24.9 26.3 20.4 76 2.9 ESE 13 20 7 11 1013.6 1013.6 0.0
21/01:30am 24.9 25.9 20.2 75 3.1 ESE 15 20 8 11 1014.0 1014.0 0.0
21/01:00am 24.9 26.2 20.2 75 3.1 ESE 13 20 7 11 1014.4 1014.4 0.0
21/12:30am 25.0 25.0 19.8 73 3.4 ESE 19 26 10 14 1014.8 1014.8 0.0
21/12:00am 25.0 25.3 20.3 75 3.1 ESE 19 26 10 14 1015.1 1015.1 0.0
 
Date/Time
EST
Temp
°C
App
Temp
°C
Dew
Point
°C
Rel
Hum
%
Delta-T
°C
Wind Press
QNH
hPa
Press
MSL
hPa
Rain since
9am
mm
Dir  Spd
km/h
Gust
km/h
Spd
kts
Gust
kts
20/11:30pm 25.0 25.2 20.5 76 2.9 ESE 20 28 11 15 1015.3 1015.3 0.0
20/11:00pm 25.0 24.5 20.0 74 3.2 ESE 22 30 12 16 1015.6 1015.6 0.0
20/10:30pm 25.3 25.6 20.5 75 3.1 ESE 19 26 10 14 1015.8 1015.8 0.0
20/10:00pm 25.1 25.6 20.1 74 3.2 ESE 17 26 9 14 1015.7 1015.7 0.0
20/09:30pm 25.2 26.4 20.0 73 3.4 ESE 13 22 7 12 1015.8 1015.8 0.0
20/09:00pm 25.2 26.1 20.9 77 2.8 ESE 17 20 9 11 1015.8 1015.8 0.0
20/08:30pm 25.3 26.6 20.8 76 3.0 ESE 15 20 8 11 1015.6 1015.6 0.0
20/08:00pm 25.3 26.0 20.5 75 3.1 ESE 17 26 9 14 1015.4 1015.4 0.0

Other Formats:

Comma delimited format used in spreadsheet applications
http://www.bom.gov.au/fwo/IDQ60801/IDQ60801.94295.axf

JavaScript Object Notation format (JSON) in row-major order
http://www.bom.gov.au/fwo/IDQ60801/IDQ60801.94295.json